Terminal Aerodrome Forecast
Issued by NWS

Home | Current Version | Previous Version | Text Only | Print | Product List | Glossary On
Versions: 1 2 3 4 5 6 7 8 9 10 11 12 13 14
214
FTUS42 KMLB 221919 AAA
TAFSUA
TAF AMD
KSUA 221919Z 2219/2318 06010KT P6SM VCTS SCT010 BKN025CB OVC250
     FM222100 08008KT P6SM VCTS SCT010 SCT025CB OVC250
     FM230000 10007KT P6SM VCSH FEW030 SCT060 BKN100
     FM230300 08004KT P6SM FEW060 SCT250
     FM231400 08008KT P6SM SCT035=

USA.gov is the U.S. government's official web portal to all federal, state and local government web resources and services.